首页
METAR-TAF:

METAR-TAF

机场 :

Watertown, 紐約州, 美国

纬度: 43-59-31N, 经度: 076-01-18W, 海拔: 99米

当前天气观测

该预报发布于8小时和17分钟前的15:56 UTC
风速6节,风向西
温度 23°C
湿度 53%
气压 1011 hPa
能見度: 16.1公里
天空无云

METAR: KART 241556Z AUTO 28006KT 10SM CLR 23/13 A2986 RMK AO2 SLP107 T02280128

时间: 20:13 (00:13 UTC)

预报

该预报发布于41分钟前的23:32 UTC
预报有效从25日的 00点(UTC)到 25日的 24点(UTC)
风速5节,风向东转东南
能見度: 10公里
散云层高于6000英尺
从 25日的 0700点(UTC)
风速7节,风向南转南东
能見度: 9.7公里
阴天层高于2000英尺
小阵雨, 轻雾
从 25日的 0900点(UTC)
风速4节,风向
能見度: 8.0公里
阴天层高于900英尺
小阵雨, 轻雾
从 25日的 1300点(UTC)
风速9节,风向
能見度: 10公里
阴天层高于1200英尺
从 25日的 1400点(UTC)
风速11节,风向西南,有时为18节阵风
能見度: 10公里
阴天层高于2000英尺
从 25日的 1900点(UTC)
风速16节,风向西转西南,有时为24节阵风
能見度: 10公里
散云层高于25000英尺

TAF: KART 242332Z 2500/2524 11005KT P6SM SCT060 FM250700 16007KT 6SM -SHRA BR OVC020 FM250900 18004KT 5SM -SHRA BR OVC009 FM251300 19009KT P6SM OVC012 FM251400 22011G18KT P6SM OVC020 FM251900 24016G24KT P6SM SCT250

超过4000个机场的气象观测和天气预报(METAR&TAF报告)。

可查询的气象台以黄色和红色小点在地图上表示。

将鼠标移到小点上方,可查看气象台名称。

然后点击查看天气观测和预报。

如需切换地图:点击带黑十字的绿色按钮放大地图;点击带横线的绿色按钮缩小地图;或者点击绿色箭头查看邻近地区的地图。


METAR-TAF: